createdAt,value
2022-10-24T00:00:04.691Z,26.03
2022-10-24T00:00:34.692Z,26.03
2022-10-24T00:01:04.745Z,26.02
2022-10-24T00:01:34.816Z,26.02
2022-10-24T00:02:04.890Z,26.03
2022-10-24T00:02:34.989Z,26.03
2022-10-24T00:03:05.130Z,26.03
2022-10-24T00:03:35.111Z,26.00
2022-10-24T00:04:35.224Z,26.02
2022-10-24T00:05:05.295Z,26.02
2022-10-24T00:05:35.371Z,26.02
2022-10-24T00:06:05.446Z,26.02
2022-10-24T00:06:35.521Z,26.02
2022-10-24T00:07:05.595Z,26.03
2022-10-24T00:07:35.667Z,26.05
2022-10-24T00:08:05.744Z,26.02
2022-10-24T00:08:35.852Z,26.03
2022-10-24T00:09:05.931Z,26.03
2022-10-24T00:09:36.048Z,26.03
2022-10-24T00:10:06.158Z,26.03
2022-10-24T00:10:36.160Z,26.00
2022-10-24T00:11:06.283Z,26.02
2022-10-24T00:11:36.277Z,26.00
2022-10-24T00:12:06.387Z,26.03
2022-10-24T00:12:36.494Z,26.02
2022-10-24T00:13:06.601Z,26.03
2022-10-24T00:13:36.737Z,26.02
2022-10-24T00:14:06.721Z,26.02
2022-10-24T00:14:36.859Z,26.03
2022-10-24T00:15:06.944Z,26.03
2022-10-24T00:15:37.054Z,26.02
2022-10-24T00:16:07.167Z,26.03
2022-10-24T00:16:37.284Z,26.03
2022-10-24T00:17:07.391Z,26.02
2022-10-24T00:17:37.505Z,26.03
2022-10-24T00:18:07.617Z,26.03
2022-10-24T00:18:37.743Z,26.02
2022-10-24T00:19:07.734Z,26.02
2022-10-24T00:19:37.844Z,26.02
2022-10-24T00:20:07.953Z,26.03
2022-10-24T00:20:38.111Z,26.02
2022-10-24T00:21:08.137Z,26.03
2022-10-24T00:21:38.222Z,26.03
2022-10-24T00:22:08.332Z,26.02
2022-10-24T00:22:38.445Z,26.02
2022-10-24T00:23:08.560Z,26.00
2022-10-24T00:23:38.684Z,26.00
2022-10-24T00:24:08.679Z,26.00
2022-10-24T00:24:38.790Z,26.02
2022-10-24T00:25:08.900Z,26.00
2022-10-24T00:25:39.013Z,26.02
2022-10-24T00:26:09.121Z,26.03
2022-10-24T00:26:39.236Z,26.02
2022-10-24T00:27:09.346Z,26.03
2022-10-24T00:27:39.458Z,26.03
2022-10-24T00:28:09.571Z,26.05
2022-10-24T00:28:39.725Z,26.00
2022-10-24T00:29:09.722Z,26.02
2022-10-24T00:29:39.840Z,26.02
2022-10-24T00:30:09.972Z,26.02
2022-10-24T00:30:40.066Z,26.02
2022-10-24T00:31:10.173Z,26.03
2022-10-24T00:31:40.305Z,26.02
2022-10-24T00:32:10.397Z,26.02
2022-10-24T00:32:40.508Z,26.02
2022-10-24T00:33:10.630Z,26.02
2022-10-24T00:33:40.752Z,26.03
2022-10-24T00:34:10.739Z,26.02
2022-10-24T00:34:40.849Z,26.03
2022-10-24T00:35:10.974Z,26.02
2022-10-24T00:35:41.072Z,26.00
2022-10-24T00:36:11.185Z,26.02
2022-10-24T00:36:41.299Z,26.00
2022-10-24T00:37:11.438Z,26.03
2022-10-24T00:37:41.568Z,26.03
2022-10-24T00:38:11.472Z,26.02
2022-10-24T00:38:41.592Z,26.02
2022-10-24T00:39:11.581Z,26.00
2022-10-24T00:39:41.694Z,26.02
2022-10-24T00:40:11.803Z,26.00
2022-10-24T00:40:41.918Z,26.00
2022-10-24T00:41:12.030Z,26.02
2022-10-24T00:41:42.138Z,26.02
2022-10-24T00:42:12.252Z,26.00
2022-10-24T00:42:42.364Z,26.02
2022-10-24T00:43:12.475Z,26.03
2022-10-24T00:43:42.775Z,26.00
2022-10-24T00:44:12.635Z,26.00
2022-10-24T00:44:42.749Z,26.02
2022-10-24T00:45:12.879Z,26.00
2022-10-24T00:45:42.968Z,25.99
2022-10-24T00:46:13.078Z,26.02
2022-10-24T00:46:43.193Z,26.02
2022-10-24T00:47:13.307Z,26.02
2022-10-24T00:47:43.871Z,26.02
2022-10-24T00:48:13.466Z,26.03
2022-10-24T00:48:43.600Z,26.02
2022-10-24T00:49:13.586Z,26.00
2022-10-24T00:49:43.694Z,25.99
2022-10-24T00:50:13.812Z,26.00
2022-10-24T00:50:43.918Z,25.99
2022-10-24T00:51:14.029Z,26.03
2022-10-24T00:51:44.141Z,26.00
2022-10-24T00:52:14.248Z,26.03
2022-10-24T00:52:44.368Z,26.02
2022-10-24T00:53:14.483Z,26.02
2022-10-24T00:53:44.648Z,25.99
2022-10-24T00:54:14.614Z,25.99
2022-10-24T00:54:44.720Z,26.02
2022-10-24T00:55:14.836Z,26.02
2022-10-24T00:55:44.944Z,26.00
2022-10-24T00:56:15.051Z,25.99
2022-10-24T00:56:45.165Z,26.00
2022-10-24T00:57:15.280Z,26.00
2022-10-24T00:57:45.807Z,26.00
2022-10-24T00:58:15.423Z,26.00
2022-10-24T00:58:45.561Z,26.00
2022-10-24T00:59:15.548Z,26.00
2022-10-24T00:59:45.622Z,26.02
2022-10-24T01:00:15.720Z,25.99
2022-10-24T01:00:45.814Z,25.99
2022-10-24T01:01:15.867Z,26.00
2022-10-24T01:01:45.869Z,26.02
2022-10-24T01:02:15.926Z,26.02
2022-10-24T01:02:46.428Z,26.00
2022-10-24T01:03:16.084Z,26.02
2022-10-24T01:03:46.167Z,26.00
2022-10-24T01:04:16.245Z,25.99
2022-10-24T01:04:46.319Z,25.99
2022-10-24T01:05:16.394Z,25.99
2022-10-24T01:05:46.465Z,25.99
2022-10-24T01:06:16.541Z,26.00
2022-10-24T01:06:46.616Z,25.99
2022-10-24T01:07:16.689Z,25.99
2022-10-24T01:07:46.765Z,26.00
2022-10-24T01:08:16.872Z,25.99
2022-10-24T01:08:46.966Z,25.97
2022-10-24T01:09:17.057Z,26.00
2022-10-24T01:09:47.162Z,25.99
2022-10-24T01:10:17.274Z,26.02
2022-10-24T01:10:47.388Z,26.02
2022-10-24T01:11:17.507Z,26.00
2022-10-24T01:11:47.613Z,25.99
2022-10-24T01:12:17.733Z,25.99
2022-10-24T01:12:47.964Z,26.03
2022-10-24T01:13:17.987Z,25.99
2022-10-24T01:13:47.968Z,26.00
2022-10-24T01:14:18.094Z,25.99
2022-10-24T01:14:48.090Z,25.99
2022-10-24T01:15:18.222Z,25.99
2022-10-24T01:15:48.313Z,26.00
2022-10-24T01:16:18.419Z,26.02
2022-10-24T01:16:48.534Z,26.00
2022-10-24T01:17:18.651Z,26.02
2022-10-24T01:17:48.759Z,26.00
2022-10-24T01:18:18.926Z,26.00
2022-10-24T01:18:48.968Z,25.99
2022-10-24T01:19:18.939Z,26.00
2022-10-24T01:19:49.050Z,26.02
2022-10-24T01:20:19.161Z,26.02
2022-10-24T01:20:49.272Z,26.00
2022-10-24T01:21:19.383Z,25.99
2022-10-24T01:21:49.496Z,26.00
2022-10-24T01:22:19.613Z,25.99
2022-10-24T01:22:49.722Z,26.02
2022-10-24T01:23:19.839Z,26.02
2022-10-24T01:23:49.951Z,26.02
2022-10-24T01:24:20.060Z,26.02
2022-10-24T01:24:50.177Z,26.03
2022-10-24T01:25:20.283Z,26.02
2022-10-24T01:25:50.397Z,26.02
2022-10-24T01:26:20.511Z,26.00
2022-10-24T01:26:50.616Z,26.02
2022-10-24T01:27:20.736Z,26.00
2022-10-24T01:27:50.843Z,26.02
2022-10-24T01:28:21.194Z,26.00
2022-10-24T01:28:51.055Z,26.02
2022-10-24T01:29:21.166Z,26.03
2022-10-24T01:29:51.278Z,26.02
2022-10-24T01:30:21.437Z,26.02
2022-10-24T01:30:51.501Z,26.00
2022-10-24T01:31:21.618Z,26.05
2022-10-24T01:31:51.727Z,26.03
2022-10-24T01:32:21.839Z,26.02
2022-10-24T01:32:51.957Z,26.02
2022-10-24T01:33:22.074Z,26.00
2022-10-24T01:33:52.058Z,26.03
2022-10-24T01:34:22.173Z,26.02
2022-10-24T01:34:52.289Z,26.03
2022-10-24T01:35:22.458Z,26.00
2022-10-24T01:35:52.440Z,26.05
2022-10-24T01:36:22.555Z,26.00
2022-10-24T01:36:52.670Z,26.03
2022-10-24T01:37:22.786Z,26.05
2022-10-24T01:37:52.935Z,26.02
2022-10-24T01:38:23.035Z,26.00
2022-10-24T01:38:52.990Z,26.02
2022-10-24T01:39:23.104Z,26.02
2022-10-24T01:39:53.212Z,26.03
2022-10-24T01:40:23.325Z,26.02
2022-10-24T01:40:53.438Z,26.00
2022-10-24T01:41:23.549Z,26.03
2022-10-24T01:41:53.661Z,26.02
2022-10-24T01:42:23.772Z,26.02
2022-10-24T01:42:53.890Z,26.02
2022-10-24T01:43:23.880Z,26.02
2022-10-24T01:44:24.064Z,26.03
2022-10-24T01:44:54.175Z,26.02
2022-10-24T01:45:24.311Z,26.00
2022-10-24T01:45:54.399Z,26.00
2022-10-24T01:46:24.507Z,26.00
2022-10-24T01:46:54.637Z,26.00
2022-10-24T01:47:24.624Z,26.02
2022-10-24T01:47:54.740Z,26.00
2022-10-24T01:48:24.861Z,26.00
2022-10-24T01:48:54.968Z,25.99
2022-10-24T01:49:25.090Z,26.02
2022-10-24T01:49:55.198Z,26.02
2022-10-24T01:50:25.308Z,26.00
2022-10-24T01:50:55.424Z,25.99
2022-10-24T01:51:25.536Z,25.97
2022-10-24T01:51:55.653Z,26.00
2022-10-24T01:52:25.768Z,26.00
2022-10-24T01:52:55.881Z,25.97
2022-10-24T01:53:25.877Z,26.00
2022-10-24T01:53:55.988Z,26.00
2022-10-24T01:54:26.105Z,25.99
2022-10-24T01:54:56.220Z,26.00
2022-10-24T01:55:26.326Z,26.02
2022-10-24T01:55:56.442Z,25.99
2022-10-24T01:56:26.555Z,25.97
2022-10-24T01:56:56.676Z,25.99
2022-10-24T01:57:26.795Z,25.99
2022-10-24T01:57:56.910Z,25.96
2022-10-24T01:58:27.022Z,25.97
2022-10-24T01:58:57.134Z,25.99
2022-10-24T01:59:27.212Z,25.99
2022-10-24T01:59:57.288Z,25.97
2022-10-24T02:00:27.498Z,25.99
2022-10-24T02:00:57.371Z,25.97
2022-10-24T02:01:27.474Z,25.99
2022-10-24T02:01:57.520Z,25.99
2022-10-24T02:02:27.595Z,25.97
2022-10-24T02:02:57.672Z,25.96
2022-10-24T02:03:27.751Z,25.99
2022-10-24T02:03:57.845Z,25.97
2022-10-24T02:04:27.928Z,25.99
2022-10-24T02:04:58.005Z,25.96
2022-10-24T02:05:28.082Z,25.97
2022-10-24T02:05:58.167Z,25.99
2022-10-24T02:06:28.239Z,25.99
2022-10-24T02:06:58.311Z,25.99
2022-10-24T02:07:28.390Z,25.96
2022-10-24T02:07:58.472Z,25.97
2022-10-24T02:08:28.549Z,25.96
2022-10-24T02:08:58.722Z,25.99
2022-10-24T02:09:28.722Z,25.97
2022-10-24T02:09:58.831Z,25.99
2022-10-24T02:10:28.939Z,25.99
2022-10-24T02:10:59.054Z,25.96
2022-10-24T02:11:29.171Z,25.96
2022-10-24T02:11:59.278Z,25.97
2022-10-24T02:12:29.396Z,25.97
2022-10-24T02:12:59.510Z,25.99
2022-10-24T02:13:29.627Z,25.97
2022-10-24T02:13:59.741Z,25.99
2022-10-24T02:14:29.854Z,25.97
2022-10-24T02:14:59.967Z,26.00
2022-10-24T02:15:30.102Z,25.97
2022-10-24T02:16:00.193Z,25.95
2022-10-24T02:16:30.303Z,25.99
2022-10-24T02:17:00.415Z,25.99
2022-10-24T02:17:30.541Z,26.02
2022-10-24T02:18:00.652Z,25.99
2022-10-24T02:18:30.758Z,25.96
2022-10-24T02:19:00.753Z,25.96
2022-10-24T02:19:30.865Z,25.97
2022-10-24T02:20:00.981Z,25.96
2022-10-24T02:20:31.099Z,25.97
2022-10-24T02:21:01.209Z,25.99
2022-10-24T02:21:31.329Z,25.97
2022-10-24T02:22:01.436Z,25.96
2022-10-24T02:22:31.569Z,25.97
2022-10-24T02:23:01.570Z,25.96
2022-10-24T02:23:31.678Z,25.97
2022-10-24T02:24:01.789Z,25.96
2022-10-24T02:24:31.903Z,25.97
2022-10-24T02:25:02.012Z,25.97
2022-10-24T02:25:32.222Z,25.97
2022-10-24T02:26:02.239Z,25.97
2022-10-24T02:26:32.351Z,25.95
2022-10-24T02:27:02.467Z,25.97
2022-10-24T02:27:32.578Z,25.97
2022-10-24T02:28:02.695Z,25.96
2022-10-24T02:28:32.812Z,25.96
2022-10-24T02:29:02.924Z,25.96
2022-10-24T02:29:33.040Z,25.97
2022-10-24T02:30:03.150Z,26.00
2022-10-24T02:30:33.285Z,25.96
2022-10-24T02:31:03.377Z,25.96
2022-10-24T02:31:33.486Z,25.97
2022-10-24T02:32:03.603Z,25.97
2022-10-24T02:32:33.733Z,25.97
2022-10-24T02:33:03.719Z,25.95
2022-10-24T02:33:33.837Z,25.96
2022-10-24T02:34:04.000Z,25.97
2022-10-24T02:34:33.988Z,25.97
2022-10-24T02:35:04.100Z,25.95
2022-10-24T02:35:34.215Z,25.96
2022-10-24T02:36:04.327Z,25.96
2022-10-24T02:36:34.443Z,25.97
2022-10-24T02:37:04.555Z,25.97
2022-10-24T02:37:34.688Z,25.96
2022-10-24T02:38:04.679Z,25.97
2022-10-24T02:38:34.790Z,25.96
2022-10-24T02:39:04.900Z,25.97
2022-10-24T02:39:35.018Z,25.97
2022-10-24T02:40:05.129Z,25.96
2022-10-24T02:40:35.240Z,25.96
2022-10-24T02:41:05.354Z,25.99
2022-10-24T02:41:35.354Z,25.97
2022-10-24T02:42:05.343Z,25.97
2022-10-24T02:42:35.484Z,25.97
2022-10-24T02:43:05.470Z,25.96
2022-10-24T02:43:35.583Z,25.95
2022-10-24T02:44:05.696Z,25.96
2022-10-24T02:44:35.817Z,25.97
2022-10-24T02:45:05.807Z,25.97
2022-10-24T02:45:35.936Z,25.95
2022-10-24T02:46:06.023Z,25.93
2022-10-24T02:46:36.138Z,25.96
2022-10-24T02:47:06.249Z,25.99
2022-10-24T02:47:36.361Z,25.95
2022-10-24T02:48:06.481Z,25.95
2022-10-24T02:48:36.593Z,25.97
2022-10-24T02:49:06.585Z,25.97
2022-10-24T02:49:36.695Z,25.97
2022-10-24T02:50:06.813Z,25.96
2022-10-24T02:50:36.933Z,25.96
2022-10-24T02:51:07.036Z,25.96
2022-10-24T02:51:37.149Z,25.95
2022-10-24T02:52:07.265Z,25.93
2022-10-24T02:52:37.374Z,25.93
2022-10-24T02:53:07.496Z,25.95
2022-10-24T02:53:37.605Z,25.97
2022-10-24T02:54:07.718Z,25.93
2022-10-24T02:54:37.833Z,25.97
2022-10-24T02:55:07.946Z,25.95
2022-10-24T02:55:38.058Z,25.96
2022-10-24T02:56:08.169Z,25.96
2022-10-24T02:56:38.282Z,25.95
2022-10-24T02:57:08.396Z,25.97
2022-10-24T02:57:38.510Z,25.96
2022-10-24T02:58:08.626Z,25.93
2022-10-24T02:58:38.737Z,25.95
2022-10-24T02:59:38.884Z,25.96
2022-10-24T03:00:08.957Z,25.95
2022-10-24T03:00:39.214Z,25.93
2022-10-24T03:01:09.274Z,25.96
2022-10-24T03:01:39.191Z,25.96
2022-10-24T03:02:09.275Z,25.95
2022-10-24T03:02:39.357Z,25.96
2022-10-24T03:03:09.431Z,25.96
2022-10-24T03:03:39.507Z,25.96
2022-10-24T03:04:09.578Z,25.95
2022-10-24T03:04:39.655Z,25.96
2022-10-24T03:05:09.730Z,25.97
2022-10-24T03:05:39.806Z,25.93
2022-10-24T03:06:09.884Z,25.96
2022-10-24T03:06:39.954Z,25.95
2022-10-24T03:07:10.029Z,25.93
2022-10-24T03:07:40.108Z,25.97
2022-10-24T03:08:10.181Z,25.95
2022-10-24T03:08:40.256Z,25.96
2022-10-24T03:09:10.348Z,25.93
2022-10-24T03:09:40.460Z,25.95
2022-10-24T03:10:10.576Z,25.97
2022-10-24T03:10:40.692Z,25.95
2022-10-24T03:11:10.807Z,25.95
2022-10-24T03:11:40.917Z,25.96
2022-10-24T03:12:11.028Z,25.96
2022-10-24T03:12:41.169Z,25.96
2022-10-24T03:13:11.158Z,25.95
2022-10-24T03:13:41.264Z,25.95
2022-10-24T03:14:11.375Z,25.93
2022-10-24T03:14:41.484Z,25.95
2022-10-24T03:15:11.599Z,25.93
2022-10-24T03:15:41.796Z,25.97
2022-10-24T03:16:14.166Z,25.97
2022-10-24T03:16:41.872Z,25.97
2022-10-24T03:17:11.984Z,25.95
2022-10-24T03:17:42.776Z,25.95
2022-10-24T03:18:12.154Z,25.95
2022-10-24T03:18:42.262Z,25.95
2022-10-24T03:19:12.377Z,25.96
2022-10-24T03:19:42.486Z,25.93
2022-10-24T03:20:12.599Z,25.93
2022-10-24T03:20:42.715Z,25.95
2022-10-24T03:21:12.826Z,25.95
2022-10-24T03:21:42.939Z,25.95
2022-10-24T03:22:13.051Z,25.95
2022-10-24T03:22:43.174Z,25.93
2022-10-24T03:23:13.167Z,25.92
2022-10-24T03:23:43.275Z,25.95
2022-10-24T03:24:15.132Z,25.97
2022-10-24T03:24:44.257Z,25.95
2022-10-24T03:25:13.414Z,25.95
2022-10-24T03:25:43.527Z,25.93
2022-10-24T03:26:13.638Z,25.95
2022-10-24T03:26:43.752Z,25.95
2022-10-24T03:27:13.866Z,25.96
2022-10-24T03:27:44.335Z,25.96
2022-10-24T03:28:13.983Z,25.95
2022-10-24T03:28:44.093Z,25.95
2022-10-24T03:29:14.209Z,25.96
2022-10-24T03:29:44.319Z,25.95
2022-10-24T03:30:14.437Z,25.92
2022-10-24T03:30:44.569Z,25.93
2022-10-24T03:31:14.654Z,25.95
2022-10-24T03:31:44.766Z,25.96
2022-10-24T03:32:14.998Z,25.95
2022-10-24T03:32:45.166Z,25.95
2022-10-24T03:33:14.932Z,25.95
2022-10-24T03:33:45.049Z,25.96
2022-10-24T03:34:15.160Z,25.93
2022-10-24T03:34:45.276Z,25.96
2022-10-24T03:35:15.386Z,25.96
2022-10-24T03:35:45.506Z,25.95
2022-10-24T03:36:15.615Z,25.95
2022-10-24T03:36:45.724Z,25.93
2022-10-24T03:37:15.852Z,25.96
2022-10-24T03:37:45.976Z,25.93
2022-10-24T03:38:15.960Z,25.96
2022-10-24T03:38:46.074Z,25.97
2022-10-24T03:39:16.183Z,25.96
2022-10-24T03:39:46.178Z,25.96
2022-10-24T03:40:16.291Z,25.93
2022-10-24T03:41:16.483Z,25.93
2022-10-24T03:41:46.597Z,25.95
2022-10-24T03:42:16.714Z,25.95
2022-10-24T03:42:47.131Z,25.95
2022-10-24T03:43:16.900Z,25.96
2022-10-24T03:43:47.012Z,25.96
2022-10-24T03:44:17.131Z,25.96
2022-10-24T03:44:47.240Z,25.96
2022-10-24T03:45:17.358Z,25.96
2022-10-24T03:45:47.491Z,25.95
2022-10-24T03:46:17.584Z,25.95
2022-10-24T03:46:47.700Z,25.95
2022-10-24T03:47:17.815Z,25.97
2022-10-24T03:47:47.945Z,25.95
2022-10-24T03:48:17.931Z,25.97
2022-10-24T03:48:48.042Z,25.97
2022-10-24T03:49:18.155Z,25.96
2022-10-24T03:49:48.265Z,25.99
2022-10-24T03:50:18.382Z,25.93
2022-10-24T03:50:48.492Z,25.95
2022-10-24T03:51:18.605Z,25.93
2022-10-24T03:51:48.719Z,25.89
2022-10-24T03:52:18.832Z,25.93
2022-10-24T03:52:48.964Z,25.92
2022-10-24T03:53:18.953Z,25.92
2022-10-24T03:53:49.063Z,25.92
2022-10-24T03:54:19.177Z,25.91
2022-10-24T03:54:49.288Z,25.93
2022-10-24T03:55:19.398Z,25.92
2022-10-24T03:55:49.507Z,25.92
2022-10-24T03:56:19.620Z,25.95
2022-10-24T03:56:49.730Z,25.95
2022-10-24T03:57:22.475Z,25.95
2022-10-24T03:57:49.934Z,25.88
2022-10-24T03:58:19.923Z,25.89
2022-10-24T03:58:50.036Z,25.89
2022-10-24T03:59:20.120Z,25.88
2022-10-24T03:59:50.193Z,25.89
2022-10-24T04:00:20.265Z,25.91
2022-10-24T04:00:50.400Z,25.91
2022-10-24T04:01:20.587Z,25.93
2022-10-24T04:01:50.579Z,25.92
2022-10-24T04:02:20.635Z,25.91
2022-10-24T04:02:50.733Z,25.93
2022-10-24T04:03:20.843Z,25.95
2022-10-24T04:03:50.886Z,25.93
2022-10-24T04:04:20.954Z,25.96
2022-10-24T04:04:51.029Z,25.93
2022-10-24T04:05:21.101Z,25.93
2022-10-24T04:05:51.172Z,25.96
2022-10-24T04:06:21.250Z,25.96
2022-10-24T04:06:51.327Z,25.95
2022-10-24T04:07:21.404Z,25.95
2022-10-24T04:07:51.494Z,25.96
2022-10-24T04:08:21.573Z,25.97
2022-10-24T04:08:51.650Z,25.99
2022-10-24T04:09:21.767Z,26.00
2022-10-24T04:09:51.873Z,25.99
2022-10-24T04:10:21.990Z,26.00
2022-10-24T04:10:52.102Z,26.00
2022-10-24T04:11:22.215Z,26.00
2022-10-24T04:11:52.329Z,25.99
2022-10-24T04:12:22.438Z,25.99
2022-10-24T04:12:52.449Z,25.99
2022-10-24T04:13:22.433Z,26.03
2022-10-24T04:13:52.681Z,25.95
2022-10-24T04:14:22.555Z,25.95
2022-10-24T04:14:52.663Z,25.95
2022-10-24T04:15:22.661Z,25.96
2022-10-24T04:15:52.796Z,25.96
2022-10-24T04:16:22.884Z,25.96
2022-10-24T04:16:52.999Z,25.97
2022-10-24T04:17:23.112Z,25.96
2022-10-24T04:17:53.243Z,25.96
2022-10-24T04:18:23.235Z,25.97
2022-10-24T04:18:53.352Z,25.99
2022-10-24T04:19:23.468Z,25.99
2022-10-24T04:19:53.578Z,25.99
2022-10-24T04:20:23.694Z,25.99
2022-10-24T04:20:53.807Z,26.00
2022-10-24T04:21:23.922Z,26.00
2022-10-24T04:21:54.030Z,25.99
2022-10-24T04:22:24.148Z,26.02
2022-10-24T04:22:54.277Z,26.02
2022-10-24T04:23:24.269Z,26.02
2022-10-24T04:23:54.378Z,25.97
2022-10-24T04:24:24.493Z,25.99
2022-10-24T04:24:54.609Z,25.99
2022-10-24T04:25:24.722Z,25.95
2022-10-24T04:25:54.832Z,25.92
2022-10-24T04:26:24.943Z,25.93
2022-10-24T04:26:55.047Z,25.92
2022-10-24T04:27:25.166Z,25.96
2022-10-24T04:27:55.273Z,25.88
2022-10-24T04:28:25.396Z,25.91
2022-10-24T04:28:55.501Z,25.92
2022-10-24T04:29:25.615Z,25.92
2022-10-24T04:29:55.725Z,25.92
2022-10-24T04:30:25.843Z,25.95
2022-10-24T04:30:55.971Z,25.96
2022-10-24T04:31:26.065Z,25.89
2022-10-24T04:31:56.176Z,25.89
2022-10-24T04:32:26.286Z,25.91
2022-10-24T04:32:56.395Z,25.92
2022-10-24T04:33:26.512Z,25.93
2022-10-24T04:33:56.632Z,25.93
2022-10-24T04:34:26.746Z,25.95
2022-10-24T04:34:56.858Z,25.96
2022-10-24T04:35:26.970Z,25.99
2022-10-24T04:35:57.083Z,25.99
2022-10-24T04:36:27.193Z,26.00
2022-10-24T04:36:57.307Z,26.00
2022-10-24T04:37:27.419Z,26.00
2022-10-24T04:37:57.527Z,26.03
2022-10-24T04:38:32.388Z,26.02
2022-10-24T04:38:57.710Z,26.05
2022-10-24T04:39:27.726Z,26.05
2022-10-24T04:39:57.839Z,26.05
2022-10-24T04:40:27.950Z,26.06
2022-10-24T04:40:58.058Z,26.00
2022-10-24T04:41:28.173Z,26.02
2022-10-24T04:41:58.282Z,26.00
2022-10-24T04:42:28.396Z,25.99
2022-10-24T04:42:58.519Z,26.02
2022-10-24T04:43:28.635Z,26.02
2022-10-24T04:43:58.744Z,26.00
2022-10-24T04:44:28.858Z,26.02
2022-10-24T04:44:58.969Z,26.03
2022-10-24T04:45:29.081Z,26.05
2022-10-24T04:45:59.222Z,26.02
2022-10-24T04:46:29.203Z,26.05
2022-10-24T04:46:59.318Z,26.03
2022-10-24T04:47:29.428Z,26.02
2022-10-24T04:47:59.552Z,26.03
2022-10-24T04:48:29.655Z,26.02
2022-10-24T04:48:59.766Z,25.95
2022-10-24T04:49:29.892Z,25.96
2022-10-24T04:49:59.995Z,25.91
2022-10-24T04:50:30.125Z,25.92
2022-10-24T04:51:00.226Z,25.92
2022-10-24T04:51:30.340Z,25.93
2022-10-24T04:52:00.460Z,25.92
2022-10-24T04:52:30.573Z,25.95
2022-10-24T04:53:00.682Z,25.93
2022-10-24T04:53:30.674Z,25.95
2022-10-24T04:54:00.783Z,25.99
2022-10-24T04:54:30.897Z,25.97
2022-10-24T04:55:01.019Z,25.97
2022-10-24T04:55:31.151Z,26.00
2022-10-24T04:56:01.141Z,26.02
2022-10-24T04:56:31.254Z,26.00
2022-10-24T04:57:01.360Z,26.00
2022-10-24T04:57:31.477Z,26.03
2022-10-24T04:58:01.606Z,26.05
2022-10-24T04:58:31.594Z,26.05
2022-10-24T04:59:01.695Z,26.05
2022-10-24T04:59:31.794Z,26.06
2022-10-24T05:00:01.873Z,26.05
2022-10-24T05:00:31.940Z,26.07
2022-10-24T05:01:02.132Z,26.09
2022-10-24T05:01:32.169Z,26.10
2022-10-24T05:02:02.175Z,26.09
2022-10-24T05:02:32.216Z,26.09
2022-10-24T05:03:02.182Z,26.10
2022-10-24T05:03:32.248Z,26.10
2022-10-24T05:04:32.350Z,26.13
2022-10-24T05:05:02.427Z,26.13
2022-10-24T05:05:32.502Z,26.13
2022-10-24T05:06:02.575Z,26.12
2022-10-24T05:06:32.656Z,26.12
2022-10-24T05:07:02.721Z,26.15
2022-10-24T05:07:32.796Z,26.12
2022-10-24T05:08:02.880Z,26.15
2022-10-24T05:08:32.951Z,26.17
2022-10-24T05:09:03.040Z,26.17
2022-10-24T05:09:33.151Z,26.16
2022-10-24T05:10:03.262Z,26.20
2022-10-24T05:10:33.373Z,26.23
2022-10-24T05:11:03.483Z,26.20
2022-10-24T05:11:33.595Z,26.23
2022-10-24T05:12:03.722Z,26.26
2022-10-24T05:12:33.818Z,26.24
2022-10-24T05:13:03.951Z,26.26
2022-10-24T05:13:36.669Z,26.27
2022-10-24T05:14:03.995Z,26.27
2022-10-24T05:14:34.128Z,26.29
2022-10-24T05:15:04.114Z,26.30
2022-10-24T05:15:34.229Z,26.32
2022-10-24T05:16:04.269Z,26.29
2022-10-24T05:16:34.215Z,26.32
2022-10-24T05:17:04.338Z,26.34
2022-10-24T05:17:34.327Z,26.34
2022-10-24T05:18:04.439Z,26.36
2022-10-24T05:18:34.559Z,26.36
2022-10-24T05:19:04.667Z,26.37
2022-10-24T05:19:34.783Z,26.39
2022-10-24T05:20:04.896Z,26.39
2022-10-24T05:20:35.080Z,26.40
2022-10-24T05:21:05.102Z,26.39
2022-10-24T05:21:35.215Z,26.37
2022-10-24T05:22:08.514Z,26.42
2022-10-24T05:22:35.338Z,26.40
2022-10-24T05:23:05.687Z,26.42
2022-10-24T05:23:35.547Z,26.42
2022-10-24T05:24:05.662Z,26.44
2022-10-24T05:24:35.764Z,26.44
2022-10-24T05:25:05.884Z,26.44
2022-10-24T05:25:35.992Z,26.46
2022-10-24T05:26:06.105Z,26.46
2022-10-24T05:26:36.217Z,26.46
2022-10-24T05:27:06.330Z,26.47
2022-10-24T05:27:36.447Z,26.48
2022-10-24T05:28:06.566Z,26.50
2022-10-24T05:28:36.677Z,26.53
2022-10-24T05:29:37.215Z,26.53
2022-10-24T05:30:06.879Z,26.51
2022-10-24T05:30:36.991Z,26.53
2022-10-24T05:31:07.106Z,26.54
2022-10-24T05:31:37.249Z,26.53
2022-10-24T05:32:07.225Z,26.53
2022-10-24T05:32:39.598Z,26.55
2022-10-24T05:33:07.419Z,26.54
2022-10-24T05:33:37.408Z,26.57
2022-10-24T05:34:07.519Z,26.57
2022-10-24T05:34:37.636Z,26.57
2022-10-24T05:35:07.748Z,26.57
2022-10-24T05:35:37.863Z,26.58
2022-10-24T05:36:07.975Z,26.60
2022-10-24T05:36:38.087Z,26.58
2022-10-24T05:37:08.206Z,26.60
2022-10-24T05:37:38.320Z,26.61
2022-10-24T05:38:08.449Z,26.63
2022-10-24T05:38:38.444Z,26.61
2022-10-24T05:39:08.555Z,26.61
2022-10-24T05:39:38.667Z,26.64
2022-10-24T05:40:08.782Z,26.63
2022-10-24T05:40:38.895Z,26.64
2022-10-24T05:41:09.011Z,26.65
2022-10-24T05:41:43.321Z,26.67
2022-10-24T05:42:09.124Z,26.63
2022-10-24T05:42:39.242Z,26.64
2022-10-24T05:43:09.368Z,26.64
2022-10-24T05:43:39.353Z,26.65
2022-10-24T05:44:09.474Z,26.63
2022-10-24T05:44:39.581Z,26.65
2022-10-24T05:45:09.695Z,26.67
2022-10-24T05:45:39.852Z,26.65
2022-10-24T05:46:09.822Z,26.67
2022-10-24T05:46:39.958Z,26.67
2022-10-24T05:47:10.046Z,26.67
2022-10-24T05:47:40.159Z,26.71
2022-10-24T05:48:10.288Z,26.70
2022-10-24T05:48:40.274Z,26.68
2022-10-24T05:49:10.388Z,26.67
2022-10-24T05:49:40.502Z,26.70
2022-10-24T05:50:10.615Z,26.71
2022-10-24T05:50:40.727Z,26.70
2022-10-24T05:51:10.839Z,26.70
2022-10-24T05:51:40.950Z,26.70
2022-10-24T05:52:11.067Z,26.70
2022-10-24T05:52:46.109Z,26.71
2022-10-24T05:53:11.188Z,26.70
2022-10-24T05:53:41.303Z,26.71
2022-10-24T05:54:55.028Z,26.73
2022-10-24T05:55:13.497Z,26.74
2022-10-24T05:55:41.554Z,26.73
2022-10-24T05:56:11.676Z,26.74
2022-10-24T05:56:41.784Z,26.74
2022-10-24T05:57:11.896Z,26.73
2022-10-24T05:57:42.334Z,26.73
2022-10-24T05:58:12.128Z,26.74
2022-10-24T05:58:42.240Z,26.73
2022-10-24T05:59:12.331Z,26.74
2022-10-24T05:59:42.400Z,26.75
2022-10-24T06:00:12.478Z,26.75
2022-10-24T06:00:42.548Z,26.74
2022-10-24T06:01:12.680Z,26.75
2022-10-24T06:01:42.826Z,26.77
2022-10-24T06:02:12.783Z,26.77
2022-10-24T06:02:43.113Z,26.75
2022-10-24T06:03:12.926Z,26.80
2022-10-24T06:03:42.996Z,26.78
2022-10-24T06:04:13.966Z,26.75
2022-10-24T06:04:43.160Z,26.77
2022-10-24T06:05:13.240Z,26.78
2022-10-24T06:05:43.310Z,26.78
2022-10-24T06:06:13.384Z,26.77
2022-10-24T06:06:43.462Z,26.80
2022-10-24T06:07:13.541Z,26.80
2022-10-24T06:07:44.079Z,26.81
2022-10-24T06:08:13.678Z,26.82
2022-10-24T06:08:43.753Z,26.80
2022-10-24T06:09:13.856Z,26.80
2022-10-24T06:09:43.966Z,26.82
2022-10-24T06:10:14.087Z,26.81
2022-10-24T06:10:44.196Z,26.84
2022-10-24T06:11:14.345Z,26.81
2022-10-24T06:11:44.334Z,26.84
2022-10-24T06:12:14.489Z,26.82
2022-10-24T06:12:44.675Z,26.70
2022-10-24T06:13:14.522Z,26.71
2022-10-24T06:13:44.632Z,26.74
2022-10-24T06:14:14.748Z,26.73
2022-10-24T06:14:44.862Z,26.75
2022-10-24T06:15:14.975Z,26.77
2022-10-24T06:15:44.966Z,26.77
2022-10-24T06:16:15.083Z,26.77
2022-10-24T06:16:45.190Z,26.75
2022-10-24T06:17:15.332Z,26.73
2022-10-24T06:17:45.418Z,26.75
2022-10-24T06:18:15.543Z,26.75
2022-10-24T06:18:45.533Z,26.75
2022-10-24T06:19:15.648Z,26.77
2022-10-24T06:19:45.871Z,26.80
2022-10-24T06:20:15.876Z,26.78
2022-10-24T06:20:45.987Z,26.80
2022-10-24T06:21:16.103Z,26.81
2022-10-24T06:21:46.214Z,26.81
2022-10-24T06:22:16.335Z,26.80
2022-10-24T06:22:46.729Z,26.82
2022-10-24T06:23:16.463Z,26.81
2022-10-24T06:23:46.474Z,26.81
2022-10-24T06:24:16.523Z,26.84
2022-10-24T06:24:46.641Z,26.80
2022-10-24T06:25:16.763Z,26.81
2022-10-24T06:25:46.752Z,26.82
2022-10-24T06:26:19.249Z,26.81
2022-10-24T06:26:46.873Z,26.80
2022-10-24T06:27:16.991Z,26.80
2022-10-24T06:27:47.103Z,26.82
2022-10-24T06:28:17.556Z,26.78
2022-10-24T06:28:47.289Z,26.80
2022-10-24T06:29:17.411Z,26.80
2022-10-24T06:29:47.528Z,26.78
2022-10-24T06:30:17.520Z,26.80
2022-10-24T06:30:47.637Z,26.80